Terminal Aerodrome Forecast
Issued by NWS

Home | Current Version | Previous Version | Graphics & Text | Print | Product List | Glossary On
Versions: 1 2 3 4 5 6 7 8 9 10 11 12 13 14 15 16 17 18 19 20 21
000
FTUS43 KGRB 281136
TAFRHI
TAF
KRHI 281136Z 2812/2912 03007KT P6SM SCT008 OVC014
      TEMPO 2812/2815 -SHRA BKN008
     FM281500 04009G14KT P6SM BKN017
     FM281700 04008G14KT P6SM BKN024
     FM282200 03006KT P6SM BKN030
     FM290100 03005KT P6SM BKN024
     FM290400 03004KT P6SM SCT017=

USA.gov is the U.S. government's official web portal to all federal, state and local government web resources and services.